sensor_id;sensor_type;location;lat;lon;timestamp;temperature;humidity
69747;DHT22;57018;50.278;19.134;2023-03-03T00:01:27;-0.80;99.90
69747;DHT22;57018;50.278;19.134;2023-03-03T00:03:58;-0.90;99.90
69747;DHT22;57018;50.278;19.134;2023-03-03T00:06:28;-1.00;99.90
69747;DHT22;57018;50.278;19.134;2023-03-03T00:08:58;-1.10;99.90
69747;DHT22;57018;50.278;19.134;2023-03-03T00:11:28;-1.00;99.90
69747;DHT22;57018;50.278;19.134;2023-03-03T00:13:58;-1.20;99.90
69747;DHT22;57018;50.278;19.134;2023-03-03T00:16:30;-1.10;99.90
69747;DHT22;57018;50.278;19.134;2023-03-03T00:19:00;-1.10;99.90
69747;DHT22;57018;50.278;19.134;2023-03-03T00:21:32;-1.10;99.90
69747;DHT22;57018;50.278;19.134;2023-03-03T00:24:16;-1.10;99.90
69747;DHT22;57018;50.278;19.134;2023-03-03T00:26:47;-1.10;99.90
69747;DHT22;57018;50.278;19.134;2023-03-03T00:29:28;-1.20;99.90
69747;DHT22;57018;50.278;19.134;2023-03-03T00:32:02;-1.20;99.90
69747;DHT22;57018;50.278;19.134;2023-03-03T00:34:38;-1.40;99.90
69747;DHT22;57018;50.278;19.134;2023-03-03T00:37:26;-1.30;99.90
69747;DHT22;57018;50.278;19.134;2023-03-03T00:40:00;-1.30;99.90
69747;DHT22;57018;50.278;19.134;2023-03-03T00:42:35;-1.50;99.90
69747;DHT22;57018;50.278;19.134;2023-03-03T00:45:22;-1.50;99.90
69747;DHT22;57018;50.278;19.134;2023-03-03T00:47:52;-1.50;99.90
69747;DHT22;57018;50.278;19.134;2023-03-03T00:50:29;-1.40;99.90
69747;DHT22;57018;50.278;19.134;2023-03-03T00:53:12;-1.40;99.90
69747;DHT22;57018;50.278;19.134;2023-03-03T00:55:45;-1.40;99.90
69747;DHT22;57018;50.278;19.134;2023-03-03T00:58:16;-1.40;99.90
69747;DHT22;57018;50.278;19.134;2023-03-03T01:00:50;-1.50;99.90
69747;DHT22;57018;50.278;19.134;2023-03-03T01:03:22;-1.50;99.90
69747;DHT22;57018;50.278;19.134;2023-03-03T01:05:53;-1.50;99.90
69747;DHT22;57018;50.278;19.134;2023-03-03T01:08:23;-1.50;99.90
69747;DHT22;57018;50.278;19.134;2023-03-03T01:10:55;-1.60;99.90
69747;DHT22;57018;50.278;19.134;2023-03-03T01:13:28;-1.60;99.90
69747;DHT22;57018;50.278;19.134;2023-03-03T01:15:59;-1.60;99.90
69747;DHT22;57018;50.278;19.134;2023-03-03T01:18:29;-1.60;99.90
69747;DHT22;57018;50.278;19.134;2023-03-03T01:20:59;-1.60;99.90
69747;DHT22;57018;50.278;19.134;2023-03-03T01:23:30;-1.60;99.90
69747;DHT22;57018;50.278;19.134;2023-03-03T01:26:00;-1.60;99.90
69747;DHT22;57018;50.278;19.134;2023-03-03T01:28:29;-1.50;99.90
69747;DHT22;57018;50.278;19.134;2023-03-03T01:31:02;-1.60;99.90
69747;DHT22;57018;50.278;19.134;2023-03-03T01:33:34;-1.50;99.90
69747;DHT22;57018;50.278;19.134;2023-03-03T01:36:05;-1.50;99.90
69747;DHT22;57018;50.278;19.134;2023-03-03T01:38:37;-1.60;99.90
69747;DHT22;57018;50.278;19.134;2023-03-03T01:41:07;-1.60;99.90
69747;DHT22;57018;50.278;19.134;2023-03-03T01:43:44;-1.50;99.90
69747;DHT22;57018;50.278;19.134;2023-03-03T01:49:16;-1.50;99.90
69747;DHT22;57018;50.278;19.134;2023-03-03T01:51:51;-1.60;99.90
69747;DHT22;57018;50.278;19.134;2023-03-03T01:54:26;-1.60;99.90
69747;DHT22;57018;50.278;19.134;2023-03-03T01:57:00;-1.70;99.90
69747;DHT22;57018;50.278;19.134;2023-03-03T01:59:32;-1.80;99.90
69747;DHT22;57018;50.278;19.134;2023-03-03T02:02:03;-1.70;99.90
69747;DHT22;57018;50.278;19.134;2023-03-03T02:04:34;-1.80;99.90
69747;DHT22;57018;50.278;19.134;2023-03-03T02:07:08;-1.80;99.90
69747;DHT22;57018;50.278;19.134;2023-03-03T02:09:45;-1.80;99.90
69747;DHT22;57018;50.278;19.134;2023-03-03T02:12:19;-1.80;99.90
69747;DHT22;57018;50.278;19.134;2023-03-03T02:14:51;-1.90;99.90
69747;DHT22;57018;50.278;19.134;2023-03-03T02:17:20;-1.90;99.90
69747;DHT22;57018;50.278;19.134;2023-03-03T02:19:57;-1.90;99.90
69747;DHT22;57018;50.278;19.134;2023-03-03T02:22:35;-1.80;99.90
69747;DHT22;57018;50.278;19.134;2023-03-03T02:25:12;-1.90;99.90
69747;DHT22;57018;50.278;19.134;2023-03-03T02:27:43;-1.90;99.90
69747;DHT22;57018;50.278;19.134;2023-03-03T02:30:17;-1.90;99.90
69747;DHT22;57018;50.278;19.134;2023-03-03T02:32:47;-1.90;99.90
69747;DHT22;57018;50.278;19.134;2023-03-03T02:35:31;-1.80;99.90
69747;DHT22;57018;50.278;19.134;2023-03-03T02:38:11;-1.90;99.90
69747;DHT22;57018;50.278;19.134;2023-03-03T02:40:50;-1.90;99.90
69747;DHT22;57018;50.278;19.134;2023-03-03T02:43:23;-2.00;99.90
69747;DHT22;57018;50.278;19.134;2023-03-03T02:45:55;-2.00;99.90
69747;DHT22;57018;50.278;19.134;2023-03-03T02:48:25;-2.00;99.90
69747;DHT22;57018;50.278;19.134;2023-03-03T02:50:55;-2.00;99.90
69747;DHT22;57018;50.278;19.134;2023-03-03T02:53:23;-1.90;99.90
69747;DHT22;57018;50.278;19.134;2023-03-03T02:55:52;-1.90;99.90
69747;DHT22;57018;50.278;19.134;2023-03-03T02:58:22;-1.80;99.90
69747;DHT22;57018;50.278;19.134;2023-03-03T03:00:52;-1.80;99.90
69747;DHT22;57018;50.278;19.134;2023-03-03T03:03:23;-1.80;99.90
69747;DHT22;57018;50.278;19.134;2023-03-03T03:05:52;-1.80;99.90
69747;DHT22;57018;50.278;19.134;2023-03-03T03:08:22;-1.80;99.90
69747;DHT22;57018;50.278;19.134;2023-03-03T03:13:24;-1.80;99.90
69747;DHT22;57018;50.278;19.134;2023-03-03T03:18:25;-1.90;99.90
69747;DHT22;57018;50.278;19.134;2023-03-03T03:20:55;-1.90;99.90
69747;DHT22;57018;50.278;19.134;2023-03-03T03:23:25;-1.90;99.90
69747;DHT22;57018;50.278;19.134;2023-03-03T03:25:55;-1.90;99.90
69747;DHT22;57018;50.278;19.134;2023-03-03T03:28:25;-2.00;99.90
69747;DHT22;57018;50.278;19.134;2023-03-03T03:30:55;-2.00;99.90
69747;DHT22;57018;50.278;19.134;2023-03-03T03:33:25;-2.00;99.90
69747;DHT22;57018;50.278;19.134;2023-03-03T03:35:55;-2.00;99.90
69747;DHT22;57018;50.278;19.134;2023-03-03T03:38:26;-2.00;99.90
69747;DHT22;57018;50.278;19.134;2023-03-03T03:40:57;-2.00;99.90
69747;DHT22;57018;50.278;19.134;2023-03-03T03:43:27;-2.10;99.90
69747;DHT22;57018;50.278;19.134;2023-03-03T03:45:55;-2.00;99.90
69747;DHT22;57018;50.278;19.134;2023-03-03T03:48:26;-2.00;99.90
69747;DHT22;57018;50.278;19.134;2023-03-03T03:50:56;-2.10;99.90
69747;DHT22;57018;50.278;19.134;2023-03-03T03:53:25;-2.00;99.90
69747;DHT22;57018;50.278;19.134;2023-03-03T03:55:55;-1.90;99.90
69747;DHT22;57018;50.278;19.134;2023-03-03T03:58:25;-2.00;99.90
69747;DHT22;57018;50.278;19.134;2023-03-03T04:01:00;-1.90;99.90
69747;DHT22;57018;50.278;19.134;2023-03-03T04:03:30;-1.90;99.90
69747;DHT22;57018;50.278;19.134;2023-03-03T04:05:59;-1.90;99.90
69747;DHT22;57018;50.278;19.134;2023-03-03T04:08:29;-2.00;99.90
69747;DHT22;57018;50.278;19.134;2023-03-03T04:10:59;-1.90;99.90
69747;DHT22;57018;50.278;19.134;2023-03-03T04:13:29;-1.90;99.90
69747;DHT22;57018;50.278;19.134;2023-03-03T04:16:02;-1.90;99.90
69747;DHT22;57018;50.278;19.134;2023-03-03T04:18:32;-2.00;99.90
69747;DHT22;57018;50.278;19.134;2023-03-03T04:21:02;-1.80;99.90
69747;DHT22;57018;50.278;19.134;2023-03-03T04:23:32;-1.90;99.90
69747;DHT22;57018;50.278;19.134;2023-03-03T04:26:01;-2.00;99.90
69747;DHT22;57018;50.278;19.134;2023-03-03T04:28:31;-2.00;99.90
69747;DHT22;57018;50.278;19.134;2023-03-03T04:31:01;-2.10;99.90
69747;DHT22;57018;50.278;19.134;2023-03-03T04:33:31;-2.10;99.90
69747;DHT22;57018;50.278;19.134;2023-03-03T04:36:01;-2.10;99.90
69747;DHT22;57018;50.278;19.134;2023-03-03T04:38:31;-2.10;99.90
69747;DHT22;57018;50.278;19.134;2023-03-03T04:41:01;-2.10;99.90
69747;DHT22;57018;50.278;19.134;2023-03-03T04:43:31;-2.10;99.90
69747;DHT22;57018;50.278;19.134;2023-03-03T04:45:59;-2.10;99.90
69747;DHT22;57018;50.278;19.134;2023-03-03T04:48:29;-2.20;99.90
69747;DHT22;57018;50.278;19.134;2023-03-03T04:50:59;-2.20;99.90
69747;DHT22;57018;50.278;19.134;2023-03-03T04:58:31;-2.20;99.90
69747;DHT22;57018;50.278;19.134;2023-03-03T05:00:59;-2.20;99.90
69747;DHT22;57018;50.278;19.134;2023-03-03T05:06:00;-2.20;99.90
69747;DHT22;57018;50.278;19.134;2023-03-03T05:11:00;-2.30;99.90
69747;DHT22;57018;50.278;19.134;2023-03-03T05:13:30;-2.30;99.90
69747;DHT22;57018;50.278;19.134;2023-03-03T05:16:00;-2.30;99.90
69747;DHT22;57018;50.278;19.134;2023-03-03T05:18:30;-2.30;99.90
69747;DHT22;57018;50.278;19.134;2023-03-03T05:21:00;-2.30;99.90
69747;DHT22;57018;50.278;19.134;2023-03-03T05:26:00;-2.20;99.90
69747;DHT22;57018;50.278;19.134;2023-03-03T05:28:30;-2.20;99.90
69747;DHT22;57018;50.278;19.134;2023-03-03T05:31:00;-2.20;99.90
69747;DHT22;57018;50.278;19.134;2023-03-03T05:33:30;-2.10;99.90
69747;DHT22;57018;50.278;19.134;2023-03-03T05:36:00;-2.00;99.90
69747;DHT22;57018;50.278;19.134;2023-03-03T05:38:29;-1.80;99.90
69747;DHT22;57018;50.278;19.134;2023-03-03T05:41:00;-1.70;99.90
69747;DHT22;57018;50.278;19.134;2023-03-03T05:43:30;-1.50;99.90
69747;DHT22;57018;50.278;19.134;2023-03-03T05:46:00;-1.30;99.90
69747;DHT22;57018;50.278;19.134;2023-03-03T05:48:29;-1.00;99.90
69747;DHT22;57018;50.278;19.134;2023-03-03T05:51:00;-0.80;99.90
69747;DHT22;57018;50.278;19.134;2023-03-03T05:53:30;-0.80;99.90
69747;DHT22;57018;50.278;19.134;2023-03-03T05:55:59;-0.70;99.90
69747;DHT22;57018;50.278;19.134;2023-03-03T05:58:29;-0.70;99.90
69747;DHT22;57018;50.278;19.134;2023-03-03T06:00:59;-0.80;99.90
69747;DHT22;57018;50.278;19.134;2023-03-03T06:03:30;-0.80;99.90
69747;DHT22;57018;50.278;19.134;2023-03-03T06:05:59;-0.70;99.90
69747;DHT22;57018;50.278;19.134;2023-03-03T06:08:29;-0.70;99.90
69747;DHT22;57018;50.278;19.134;2023-03-03T06:11:00;-0.80;99.90
69747;DHT22;57018;50.278;19.134;2023-03-03T06:13:30;-0.90;99.90
69747;DHT22;57018;50.278;19.134;2023-03-03T06:16:00;-0.90;99.90
69747;DHT22;57018;50.278;19.134;2023-03-03T06:18:29;-0.90;99.90
69747;DHT22;57018;50.278;19.134;2023-03-03T06:20:59;-0.80;99.90
69747;DHT22;57018;50.278;19.134;2023-03-03T06:23:29;-0.80;99.90
69747;DHT22;57018;50.278;19.134;2023-03-03T06:25:59;-0.80;99.90
69747;DHT22;57018;50.278;19.134;2023-03-03T06:28:29;-0.70;99.90
69747;DHT22;57018;50.278;19.134;2023-03-03T06:30:58;-0.80;99.90
69747;DHT22;57018;50.278;19.134;2023-03-03T06:33:28;-0.70;99.90
69747;DHT22;57018;50.278;19.134;2023-03-03T06:35:58;-0.60;99.90
69747;DHT22;57018;50.278;19.134;2023-03-03T06:38:28;-0.60;99.90
69747;DHT22;57018;50.278;19.134;2023-03-03T06:40:58;-0.60;99.90
69747;DHT22;57018;50.278;19.134;2023-03-03T06:43:29;-0.60;99.90
69747;DHT22;57018;50.278;19.134;2023-03-03T06:45:59;-0.60;99.90
69747;DHT22;57018;50.278;19.134;2023-03-03T06:48:29;-0.60;99.90
69747;DHT22;57018;50.278;19.134;2023-03-03T06:51:00;-0.40;99.90
69747;DHT22;57018;50.278;19.134;2023-03-03T06:53:32;-0.20;99.90
69747;DHT22;57018;50.278;19.134;2023-03-03T06:56:06;-0.20;99.90
69747;DHT22;57018;50.278;19.134;2023-03-03T06:58:37;-0.30;99.40
69747;DHT22;57018;50.278;19.134;2023-03-03T07:01:14;-0.10;99.50
69747;DHT22;57018;50.278;19.134;2023-03-03T07:03:45;-0.10;99.50
69747;DHT22;57018;50.278;19.134;2023-03-03T07:06:21;-0.20;98.90
69747;DHT22;57018;50.278;19.134;2023-03-03T07:08:52;0.00;98.80
69747;DHT22;57018;50.278;19.134;2023-03-03T07:11:23;-0.10;98.20
69747;DHT22;57018;50.278;19.134;2023-03-03T07:13:54;-0.10;98.20
69747;DHT22;57018;50.278;19.134;2023-03-03T07:16:27;0.10;99.30
69747;DHT22;57018;50.278;19.134;2023-03-03T07:18:59;0.30;98.30
69747;DHT22;57018;50.278;19.134;2023-03-03T07:21:34;0.70;97.20
69747;DHT22;57018;50.278;19.134;2023-03-03T07:24:21;0.60;96.30
69747;DHT22;57018;50.278;19.134;2023-03-03T07:26:51;0.70;95.40
69747;DHT22;57018;50.278;19.134;2023-03-03T07:29:25;0.70;94.10
69747;DHT22;57018;50.278;19.134;2023-03-03T07:31:56;0.80;94.00
69747;DHT22;57018;50.278;19.134;2023-03-03T07:34:29;0.70;94.20
69747;DHT22;57018;50.278;19.134;2023-03-03T07:37:12;0.60;93.70
69747;DHT22;57018;50.278;19.134;2023-03-03T07:39:45;0.70;94.80
69747;DHT22;57018;50.278;19.134;2023-03-03T07:42:24;0.80;95.10
69747;DHT22;57018;50.278;19.134;2023-03-03T07:44:58;1.00;94.00
69747;DHT22;57018;50.278;19.134;2023-03-03T07:47:30;1.10;93.30
69747;DHT22;57018;50.278;19.134;2023-03-03T07:50:14;1.30;92.30
69747;DHT22;57018;50.278;19.134;2023-03-03T07:52:49;1.20;92.40
69747;DHT22;57018;50.278;19.134;2023-03-03T07:55:34;1.20;93.40
69747;DHT22;57018;50.278;19.134;2023-03-03T07:58:21;1.30;92.10
69747;DHT22;57018;50.278;19.134;2023-03-03T08:01:26;1.20;91.90
69747;DHT22;57018;50.278;19.134;2023-03-03T08:03:57;1.20;92.20
69747;DHT22;57018;50.278;19.134;2023-03-03T08:06:40;0.70;93.60
69747;DHT22;57018;50.278;19.134;2023-03-03T08:11:54;0.50;95.20
69747;DHT22;57018;50.278;19.134;2023-03-03T08:14:30;0.50;95.50
69747;DHT22;57018;50.278;19.134;2023-03-03T08:17:05;0.50;96.00
69747;DHT22;57018;50.278;19.134;2023-03-03T08:19:35;0.50;96.60
69747;DHT22;57018;50.278;19.134;2023-03-03T08:22:12;0.50;96.60
69747;DHT22;57018;50.278;19.134;2023-03-03T08:24:43;0.60;95.50
69747;DHT22;57018;50.278;19.134;2023-03-03T08:27:13;0.90;96.30
69747;DHT22;57018;50.278;19.134;2023-03-03T08:29:43;0.90;95.60
69747;DHT22;57018;50.278;19.134;2023-03-03T08:32:13;1.20;95.20
69747;DHT22;57018;50.278;19.134;2023-03-03T08:34:43;1.30;93.90
69747;DHT22;57018;50.278;19.134;2023-03-03T08:37:13;1.50;94.40
69747;DHT22;57018;50.278;19.134;2023-03-03T08:39:41;1.40;93.60
69747;DHT22;57018;50.278;19.134;2023-03-03T08:42:11;1.60;92.30
69747;DHT22;57018;50.278;19.134;2023-03-03T08:44:41;1.60;92.30
69747;DHT22;57018;50.278;19.134;2023-03-03T08:47:11;1.50;93.10
69747;DHT22;57018;50.278;19.134;2023-03-03T08:49:41;1.50;93.00
69747;DHT22;57018;50.278;19.134;2023-03-03T08:52:11;1.60;92.80
69747;DHT22;57018;50.278;19.134;2023-03-03T08:54:41;1.40;93.40
69747;DHT22;57018;50.278;19.134;2023-03-03T08:57:11;1.40;93.90
69747;DHT22;57018;50.278;19.134;2023-03-03T08:59:41;1.40;94.70
69747;DHT22;57018;50.278;19.134;2023-03-03T09:02:10;1.40;95.20
69747;DHT22;57018;50.278;19.134;2023-03-03T09:04:40;1.50;94.60
69747;DHT22;57018;50.278;19.134;2023-03-03T09:07:10;1.40;95.30
69747;DHT22;57018;50.278;19.134;2023-03-03T09:09:40;1.70;96.20
69747;DHT22;57018;50.278;19.134;2023-03-03T09:12:15;1.40;96.80
69747;DHT22;57018;50.278;19.134;2023-03-03T09:14:47;1.40;97.10
69747;DHT22;57018;50.278;19.134;2023-03-03T09:17:25;1.30;97.70
69747;DHT22;57018;50.278;19.134;2023-03-03T09:19:58;1.30;98.10
69747;DHT22;57018;50.278;19.134;2023-03-03T09:22:36;1.50;97.80
69747;DHT22;57018;50.278;19.134;2023-03-03T09:25:20;1.50;98.20
69747;DHT22;57018;50.278;19.134;2023-03-03T09:27:53;1.70;97.20
69747;DHT22;57018;50.278;19.134;2023-03-03T09:30:36;1.60;97.30
69747;DHT22;57018;50.278;19.134;2023-03-03T09:33:25;1.90;96.80
69747;DHT22;57018;50.278;19.134;2023-03-03T09:36:00;1.80;96.20
69747;DHT22;57018;50.278;19.134;2023-03-03T09:38:33;1.90;95.80
69747;DHT22;57018;50.278;19.134;2023-03-03T09:41:30;2.00;96.10
69747;DHT22;57018;50.278;19.134;2023-03-03T09:44:23;1.90;95.50
69747;DHT22;57018;50.278;19.134;2023-03-03T09:47:08;1.90;95.10
69747;DHT22;57018;50.278;19.134;2023-03-03T09:49:52;1.70;96.10
69747;DHT22;57018;50.278;19.134;2023-03-03T09:52:35;1.70;95.70
69747;DHT22;57018;50.278;19.134;2023-03-03T09:55:29;1.70;96.20
69747;DHT22;57018;50.278;19.134;2023-03-03T09:58:13;1.90;95.80
69747;DHT22;57018;50.278;19.134;2023-03-03T10:00:56;1.80;94.50
69747;DHT22;57018;50.278;19.134;2023-03-03T10:03:52;1.60;95.30
69747;DHT22;57018;50.278;19.134;2023-03-03T10:06:33;1.70;95.20
69747;DHT22;57018;50.278;19.134;2023-03-03T10:09:31;1.80;95.60
69747;DHT22;57018;50.278;19.134;2023-03-03T10:12:11;1.80;95.50
69747;DHT22;57018;50.278;19.134;2023-03-03T10:15:05;1.70;94.80
69747;DHT22;57018;50.278;19.134;2023-03-03T10:17:51;2.20;95.20
69747;DHT22;57018;50.278;19.134;2023-03-03T10:20:38;2.30;93.10
69747;DHT22;57018;50.278;19.134;2023-03-03T10:23:20;2.30;93.60
69747;DHT22;57018;50.278;19.134;2023-03-03T10:25:55;2.40;93.00
69747;DHT22;57018;50.278;19.134;2023-03-03T10:31:28;2.00;94.60
69747;DHT22;57018;50.278;19.134;2023-03-03T10:34:14;1.90;94.90
69747;DHT22;57018;50.278;19.134;2023-03-03T10:36:52;2.00;95.50
69747;DHT22;57018;50.278;19.134;2023-03-03T10:39:35;1.80;95.50
69747;DHT22;57018;50.278;19.134;2023-03-03T10:42:23;1.90;95.60
69747;DHT22;57018;50.278;19.134;2023-03-03T10:45:15;2.00;94.70
69747;DHT22;57018;50.278;19.134;2023-03-03T10:48:02;2.00;94.50
69747;DHT22;57018;50.278;19.134;2023-03-03T10:50:46;1.80;93.10
69747;DHT22;57018;50.278;19.134;2023-03-03T10:53:24;1.90;93.80
69747;DHT22;57018;50.278;19.134;2023-03-03T10:56:10;1.90;93.60
69747;DHT22;57018;50.278;19.134;2023-03-03T10:58:45;1.90;93.20
69747;DHT22;57018;50.278;19.134;2023-03-03T11:01:23;2.00;93.70
69747;DHT22;57018;50.278;19.134;2023-03-03T11:04:15;2.20;93.50
69747;DHT22;57018;50.278;19.134;2023-03-03T11:06:56;2.20;92.60
69747;DHT22;57018;50.278;19.134;2023-03-03T11:09:36;2.20;92.90
69747;DHT22;57018;50.278;19.134;2023-03-03T11:12:22;2.30;92.80
69747;DHT22;57018;50.278;19.134;2023-03-03T11:15:11;2.30;92.60
69747;DHT22;57018;50.278;19.134;2023-03-03T11:18:05;2.40;92.60
69747;DHT22;57018;50.278;19.134;2023-03-03T11:20:45;2.50;92.20
69747;DHT22;57018;50.278;19.134;2023-03-03T11:23:34;2.30;91.80
69747;DHT22;57018;50.278;19.134;2023-03-03T11:26:14;2.60;91.20
69747;DHT22;57018;50.278;19.134;2023-03-03T11:28:58;2.60;90.50
69747;DHT22;57018;50.278;19.134;2023-03-03T11:31:37;2.70;90.50
69747;DHT22;57018;50.278;19.134;2023-03-03T11:34:33;2.70;90.30
69747;DHT22;57018;50.278;19.134;2023-03-03T11:37:08;2.70;90.80
69747;DHT22;57018;50.278;19.134;2023-03-03T11:39:41;3.00;90.60
69747;DHT22;57018;50.278;19.134;2023-03-03T11:42:13;3.30;90.30
69747;DHT22;57018;50.278;19.134;2023-03-03T11:44:48;3.30;89.50
69747;DHT22;57018;50.278;19.134;2023-03-03T11:47:22;3.40;88.60
69747;DHT22;57018;50.278;19.134;2023-03-03T11:49:58;3.40;88.80
69747;DHT22;57018;50.278;19.134;2023-03-03T11:52:38;3.30;88.50
69747;DHT22;57018;50.278;19.134;2023-03-03T11:55:14;3.30;88.10
69747;DHT22;57018;50.278;19.134;2023-03-03T11:57:51;3.20;88.20
69747;DHT22;57018;50.278;19.134;2023-03-03T12:00:28;3.30;87.90
69747;DHT22;57018;50.278;19.134;2023-03-03T12:03:20;3.30;87.70
69747;DHT22;57018;50.278;19.134;2023-03-03T12:06:00;3.50;87.60
69747;DHT22;57018;50.278;19.134;2023-03-03T12:08:39;3.60;87.00
69747;DHT22;57018;50.278;19.134;2023-03-03T12:11:19;3.50;86.00
69747;DHT22;57018;50.278;19.134;2023-03-03T12:13:56;3.80;85.60
69747;DHT22;57018;50.278;19.134;2023-03-03T12:16:40;4.20;84.40
69747;DHT22;57018;50.278;19.134;2023-03-03T12:19:29;4.20;83.60
69747;DHT22;57018;50.278;19.134;2023-03-03T12:22:28;4.10;82.30
69747;DHT22;57018;50.278;19.134;2023-03-03T12:25:20;4.00;83.00
69747;DHT22;57018;50.278;19.134;2023-03-03T12:27:55;3.90;83.30
69747;DHT22;57018;50.278;19.134;2023-03-03T12:30:39;3.80;83.80
69747;DHT22;57018;50.278;19.134;2023-03-03T12:33:21;3.90;83.80
69747;DHT22;57018;50.278;19.134;2023-03-03T12:36:00;3.60;84.10
69747;DHT22;57018;50.278;19.134;2023-03-03T12:38:39;3.50;84.30
69747;DHT22;57018;50.278;19.134;2023-03-03T12:41:19;3.60;84.40
69747;DHT22;57018;50.278;19.134;2023-03-03T12:43:57;3.80;84.30
69747;DHT22;57018;50.278;19.134;2023-03-03T12:46:38;3.90;83.10
69747;DHT22;57018;50.278;19.134;2023-03-03T12:49:10;4.20;82.70
69747;DHT22;57018;50.278;19.134;2023-03-03T12:51:49;4.00;81.40
69747;DHT22;57018;50.278;19.134;2023-03-03T12:54:46;4.00;81.80
69747;DHT22;57018;50.278;19.134;2023-03-03T12:57:20;4.00;81.50
69747;DHT22;57018;50.278;19.134;2023-03-03T13:00:10;4.20;81.60
69747;DHT22;57018;50.278;19.134;2023-03-03T13:02:48;4.00;81.90
69747;DHT22;57018;50.278;19.134;2023-03-03T13:05:31;4.20;82.10
69747;DHT22;57018;50.278;19.134;2023-03-03T13:08:19;4.10;81.90
69747;DHT22;57018;50.278;19.134;2023-03-03T13:10:54;4.20;81.30
69747;DHT22;57018;50.278;19.134;2023-03-03T13:13:29;4.40;80.70
69747;DHT22;57018;50.278;19.134;2023-03-03T13:16:08;4.30;80.10
69747;DHT22;57018;50.278;19.134;2023-03-03T13:18:50;4.40;80.20
69747;DHT22;57018;50.278;19.134;2023-03-03T13:21:25;4.70;79.30
69747;DHT22;57018;50.278;19.134;2023-03-03T13:24:04;4.50;79.60
69747;DHT22;57018;50.278;19.134;2023-03-03T13:26:36;4.50;79.40
69747;DHT22;57018;50.278;19.134;2023-03-03T13:29:17;4.50;79.70
69747;DHT22;57018;50.278;19.134;2023-03-03T13:31:50;4.60;78.40
69747;DHT22;57018;50.278;19.134;2023-03-03T13:34:34;4.50;77.90
69747;DHT22;57018;50.278;19.134;2023-03-03T13:37:04;4.60;77.90
69747;DHT22;57018;50.278;19.134;2023-03-03T13:39:51;4.70;77.90
69747;DHT22;57018;50.278;19.134;2023-03-03T13:42:29;4.90;77.90
69747;DHT22;57018;50.278;19.134;2023-03-03T13:45:05;4.60;78.30
69747;DHT22;57018;50.278;19.134;2023-03-03T13:47:42;4.60;78.40
69747;DHT22;57018;50.278;19.134;2023-03-03T13:50:21;4.80;78.40
69747;DHT22;57018;50.278;19.134;2023-03-03T13:53:04;4.60;78.30
69747;DHT22;57018;50.278;19.134;2023-03-03T13:55:43;4.70;78.80
69747;DHT22;57018;50.278;19.134;2023-03-03T13:58:15;4.80;78.50
69747;DHT22;57018;50.278;19.134;2023-03-03T14:00:58;4.90;78.40
69747;DHT22;57018;50.278;19.134;2023-03-03T14:06:29;4.60;78.40
69747;DHT22;57018;50.278;19.134;2023-03-03T14:09:11;4.50;78.70
69747;DHT22;57018;50.278;19.134;2023-03-03T14:11:51;4.50;78.60
69747;DHT22;57018;50.278;19.134;2023-03-03T14:14:35;4.20;79.30
69747;DHT22;57018;50.278;19.134;2023-03-03T14:17:14;4.50;79.30
69747;DHT22;57018;50.278;19.134;2023-03-03T14:19:47;4.40;79.20
69747;DHT22;57018;50.278;19.134;2023-03-03T14:22:23;4.40;79.50
69747;DHT22;57018;50.278;19.134;2023-03-03T14:25:02;4.50;78.90
69747;DHT22;57018;50.278;19.134;2023-03-03T14:27:38;4.40;78.10
69747;DHT22;57018;50.278;19.134;2023-03-03T14:30:32;4.30;78.40
69747;DHT22;57018;50.278;19.134;2023-03-03T14:33:25;4.50;78.60
69747;DHT22;57018;50.278;19.134;2023-03-03T14:36:07;4.40;78.70
69747;DHT22;57018;50.278;19.134;2023-03-03T14:38:46;4.50;78.40
69747;DHT22;57018;50.278;19.134;2023-03-03T14:41:19;4.40;78.70
69747;DHT22;57018;50.278;19.134;2023-03-03T14:43:59;4.20;79.40
69747;DHT22;57018;50.278;19.134;2023-03-03T14:46:45;4.00;79.50
69747;DHT22;57018;50.278;19.134;2023-03-03T14:49:27;3.60;80.40
69747;DHT22;57018;50.278;19.134;2023-03-03T14:52:02;3.60;81.30
69747;DHT22;57018;50.278;19.134;2023-03-03T14:54:37;3.20;82.20
69747;DHT22;57018;50.278;19.134;2023-03-03T14:57:14;3.50;82.10
69747;DHT22;57018;50.278;19.134;2023-03-03T14:59:57;3.30;82.20
69747;DHT22;57018;50.278;19.134;2023-03-03T15:02:36;3.40;82.00
69747;DHT22;57018;50.278;19.134;2023-03-03T15:05:20;3.20;82.20
69747;DHT22;57018;50.278;19.134;2023-03-03T15:07:52;2.90;82.90
69747;DHT22;57018;50.278;19.134;2023-03-03T15:10:33;2.80;83.60
69747;DHT22;57018;50.278;19.134;2023-03-03T15:16:15;2.80;84.00
69747;DHT22;57018;50.278;19.134;2023-03-03T15:22:17;3.30;82.60
69747;DHT22;57018;50.278;19.134;2023-03-03T15:24:54;3.20;83.30
69747;DHT22;57018;50.278;19.134;2023-03-03T15:27:30;3.00;83.90
69747;DHT22;57018;50.278;19.134;2023-03-03T15:30:10;2.90;84.30
69747;DHT22;57018;50.278;19.134;2023-03-03T15:32:42;2.80;85.50
69747;DHT22;57018;50.278;19.134;2023-03-03T15:35:26;2.60;85.70
69747;DHT22;57018;50.278;19.134;2023-03-03T15:38:06;2.60;86.40
69747;DHT22;57018;50.278;19.134;2023-03-03T15:40:46;2.50;86.70
69747;DHT22;57018;50.278;19.134;2023-03-03T15:43:24;2.40;87.10
69747;DHT22;57018;50.278;19.134;2023-03-03T15:46:04;2.30;87.00
69747;DHT22;57018;50.278;19.134;2023-03-03T15:48:55;2.20;87.80
69747;DHT22;57018;50.278;19.134;2023-03-03T15:51:45;2.10;88.00
69747;DHT22;57018;50.278;19.134;2023-03-03T15:54:27;2.10;88.00
69747;DHT22;57018;50.278;19.134;2023-03-03T15:57:04;2.20;88.30
69747;DHT22;57018;50.278;19.134;2023-03-03T15:59:52;2.20;88.80
69747;DHT22;57018;50.278;19.134;2023-03-03T16:02:40;2.00;88.90
69747;DHT22;57018;50.278;19.134;2023-03-03T16:05:17;2.20;89.20
69747;DHT22;57018;50.278;19.134;2023-03-03T16:07:58;2.30;89.30
69747;DHT22;57018;50.278;19.134;2023-03-03T16:10:40;2.00;90.20
69747;DHT22;57018;50.278;19.134;2023-03-03T16:13:25;2.30;90.50
69747;DHT22;57018;50.278;19.134;2023-03-03T16:16:06;2.00;90.40
69747;DHT22;57018;50.278;19.134;2023-03-03T16:18:48;1.90;90.40
69747;DHT22;57018;50.278;19.134;2023-03-03T16:21:25;2.10;90.40
69747;DHT22;57018;50.278;19.134;2023-03-03T16:23:57;2.10;90.80
69747;DHT22;57018;50.278;19.134;2023-03-03T16:26:35;1.90;90.50
69747;DHT22;57018;50.278;19.134;2023-03-03T16:29:22;1.90;90.40
69747;DHT22;57018;50.278;19.134;2023-03-03T16:31:57;2.00;90.50
69747;DHT22;57018;50.278;19.134;2023-03-03T16:34:35;1.80;90.60
69747;DHT22;57018;50.278;19.134;2023-03-03T16:37:14;1.70;91.10
69747;DHT22;57018;50.278;19.134;2023-03-03T16:39:56;1.80;91.30
69747;DHT22;57018;50.278;19.134;2023-03-03T16:42:29;1.70;91.70
69747;DHT22;57018;50.278;19.134;2023-03-03T16:45:19;1.70;92.00
69747;DHT22;57018;50.278;19.134;2023-03-03T16:48:14;1.80;92.50
69747;DHT22;57018;50.278;19.134;2023-03-03T16:50:59;1.70;92.60
69747;DHT22;57018;50.278;19.134;2023-03-03T16:53:49;1.80;92.70
69747;DHT22;57018;50.278;19.134;2023-03-03T16:56:23;1.80;93.10